Airfield :
LOGIN :

Register | Disclaimer

   EN    FR    IT 

 










Legend :    VFR   Marginal VFR   IFR   Intensive IFR   Very Intensive IFR
Visi :
Ceiling :
>= 8 km
>= 3000ft
5 to 8 km
1000 to 3000 ft
1500m to 5 km
500 to 1000 ft
800 to 1500m
200 to 500 ft
< 800m
< 200 ft
Symbols :   Thunderstorms  Fog  Heavy snow  Heavy precipitations  Wind > 20 kt
SIGMETs :     Misc.  Thunderstorms  Icing  Turbulence  Mountain Waves  Volcanic Ashes







- Airport Elevation : 124 ft
- IATA code : RNS
- Download approach charts


LFRN - Rennes

CURRENT METAR :
  • 220930Z AUTO 16010KT 9999 FEW036 OVC066 15/10 Q1021 NOSIG

EXPIRED METARs :
  • 220900Z AUTO 16006KT 9999 FEW037 SCT062 OVC076 14/10 Q1022 NOSIG
  • 220830Z AUTO 17005KT 9999 BKN037 BKN074 OVC086 14/09 Q1022 NOSIG
  • 220800Z AUTO 15004KT CAVOK 13/10 Q1022 NOSIG
  • 220730Z AUTO 15005KT CAVOK 13/10 Q1022 NOSIG
  • 220700Z AUTO 16004KT CAVOK 12/10 Q1022 NOSIG

TAF TAF LFRN
Valid from the 22 at 06:00 until the 23 at 06:00 UTC


220500Z 2206/2306 19003KT 9999 SCT045
BECMG 2211/2213 17010KT
TEMPO 2208/2218 -RA
BECMG 2214/2216 20015G25KT BKN015
BECMG 2216/2218 OVC008
TEMPO 2218/2306 3000 DZRA BKN003
BECMG 2220/2222 22012KT
PROB40
TEMPO 2222/2224 1200 DZRA BKN002
ATIS : +33 2 99 67 72 50
No reported NOTAMs for that airfield.
1 SIGMET reported for the Brest FIR (LFRR) :
 
Severe icing
LFRR SIGMET 1 VALID 220630/221000 LFPW
LFRR BREST FIR/UIR SEV ICE FCST WI N4930 W00445 - N5000 W00200 - N5000 W00015 - N4845 W00015 - N4900 W00400 - N4930 W00445 FL080/200 MOV E 35KT NC=



MET'MAP, your aeronautical weather chart ! - Copyright ORBIFLY December 2007 - Disclaimer

ORBIFLY MET'MAP TEAM :

Programming & Development : Alexandra Zaïnal
Concept & Development : Baudouin d'Aumeries
Co-Development & Prog : Marc-Olivier Méhu
Technical & hardware support : Manuel Goepfert

Contact : metmap@orbifly.com




SOURCES & CREDITS :

   NOAA